Time;durP1;ratioP1;P1;durP2;ratioP2;P2;SDS_P1;SDS_P2;PMS_P1;PMS_P2;Temp;Humidity;BMP_temperature;BMP_pressure;BME280_temperature;BME280_humidity;BME280_pressure;Samples;Min_cycle;Max_cycle;Signal;HPM_P1;HPM_P2
2022/08/31 00:07:23;;;;;;;3.83;2.00;;;;;;;15.92;100.00;98808.44;15291863;19;20038;-80
2022/08/31 00:12:32;;;;;;;2.67;2.08;;;;;;;15.94;100.00;98806.38;15288922;19;20039;-76
2022/08/31 00:17:39;;;;;;;2.67;2.10;;;;;;;15.89;100.00;98804.22;15285053;19;20027;-76
2022/08/31 00:22:48;;;;;;;2.45;2.10;;;;;;;15.86;100.00;98801.88;15293589;19;20014;-76
2022/08/31 00:27:54;;;;;;;3.38;2.10;;;;;;;15.78;100.00;98801.94;15297238;19;20030;-78
2022/08/31 00:32:59;;;;;;;3.42;2.20;;;;;;;15.77;100.00;98801.06;15301192;19;20847;-77
2022/08/31 00:38:07;;;;;;;2.65;1.85;;;;;;;15.72;100.00;98807.06;15300434;19;20012;-77
2022/08/31 00:43:13;;;;;;;3.42;2.00;;;;;;;15.67;100.00;98814.06;15297508;19;20019;-80
2022/08/31 00:48:18;;;;;;;2.75;2.03;;;;;;;15.63;100.00;98813.63;15303205;19;20025;-75
2022/08/31 00:53:26;;;;;;;2.13;1.90;;;;;;;15.61;100.00;98806.69;15299695;19;20394;-82
2022/08/31 00:58:30;;;;;;;2.20;1.80;;;;;;;15.57;100.00;98815.19;15303942;19;20025;-75
2022/08/31 01:03:35;;;;;;;2.20;2.00;;;;;;;15.51;100.00;98813.22;15289660;19;20002;-78
2022/08/31 01:08:43;;;;;;;2.35;1.70;;;;;;;15.50;100.00;98819.69;15289269;19;20046;-77
2022/08/31 01:13:48;;;;;;;3.17;1.73;;;;;;;15.43;100.00;98815.16;15286766;19;20010;-76
2022/08/31 01:18:57;;;;;;;2.33;1.75;;;;;;;15.43;100.00;98816.00;15293116;19;20357;-77
2022/08/31 01:24:07;;;;;;;2.20;1.88;;;;;;;15.40;100.00;98819.94;15286614;19;20046;-76
2022/08/31 01:29:11;;;;;;;4.28;1.90;;;;;;;15.34;100.00;98820.66;15285573;19;20010;-76
2022/08/31 01:34:20;;;;;;;1.92;1.73;;;;;;;15.31;100.00;98826.47;15283896;19;20029;-77
2022/08/31 01:39:28;;;;;;;2.15;1.80;;;;;;;15.30;100.00;98822.06;15293373;19;20058;-76
2022/08/31 01:44:34;;;;;;;4.07;1.70;;;;;;;15.26;100.00;98823.44;15286448;19;20483;-77
2022/08/31 01:49:45;;;;;;;2.53;1.88;;;;;;;15.24;100.00;98807.34;15298027;19;20007;-77
2022/08/31 01:54:53;;;;;;;2.53;1.67;;;;;;;15.20;100.00;98805.16;15344753;19;20013;-81
2022/08/31 02:00:01;;;;;;;2.13;1.70;;;;;;;15.16;100.00;98818.28;15309521;19;20025;-80
2022/08/31 02:05:27;;;;;;;3.25;1.95;;;;;;;15.08;100.00;98821.00;15300737;19;20002;-79
2022/08/31 02:10:35;;;;;;;2.50;1.92;;;;;;;15.02;100.00;98825.28;15301230;19;20042;-80
2022/08/31 02:15:40;;;;;;;2.10;1.90;;;;;;;14.98;100.00;98824.00;15296072;19;20085;-79
2022/08/31 02:20:45;;;;;;;2.33;1.85;;;;;;;14.89;100.00;98817.75;15304594;19;20390;-79
2022/08/31 02:25:54;;;;;;;5.57;2.03;;;;;;;14.84;100.00;98827.47;15299466;19;20011;-79
2022/08/31 02:30:59;;;;;;;3.38;1.90;;;;;;;14.75;100.00;98819.38;15292943;19;20014;-79
2022/08/31 02:36:05;;;;;;;3.25;1.83;;;;;;;14.71;100.00;98822.59;15293525;19;20559;-79
2022/08/31 02:41:12;;;;;;;7.15;1.70;;;;;;;14.63;100.00;98827.03;15289703;19;20018;-80
2022/08/31 02:46:19;;;;;;;2.92;2.22;;;;;;;14.56;100.00;98831.50;15293821;19;20019;-80
2022/08/31 02:51:34;;;;;;;2.55;1.90;;;;;;;14.49;100.00;98836.78;15292084;19;20006;-80
2022/08/31 02:56:42;;;;;;;2.88;2.10;;;;;;;14.44;100.00;98833.72;15297693;19;20413;-80
2022/08/31 03:01:47;;;;;;;3.22;2.10;;;;;;;14.40;100.00;98827.00;15293874;19;20558;-80
2022/08/31 03:06:53;;;;;;;5.47;1.90;;;;;;;14.37;100.00;98821.91;15293642;19;20025;-81
2022/08/31 03:12:01;;;;;;;2.72;1.85;;;;;;;14.35;100.00;98818.53;15290339;19;20034;-84
2022/08/31 03:17:06;;;;;;;2.30;2.00;;;;;;;14.33;100.00;98816.00;15295787;19;20399;-81
2022/08/31 03:22:13;;;;;;;2.17;1.70;;;;;;;14.30;100.00;98818.19;15296429;19;20081;-80
2022/08/31 03:27:21;;;;;;;2.28;2.00;;;;;;;14.22;100.00;98813.69;15297393;19;20447;-79
2022/08/31 03:32:26;;;;;;;2.03;1.83;;;;;;;14.11;100.00;98822.19;15298141;19;20010;-79
2022/08/31 03:37:32;;;;;;;2.13;1.90;;;;;;;14.11;100.00;98808.63;15292935;19;20014;-85
2022/08/31 03:42:41;;;;;;;2.20;2.00;;;;;;;14.02;100.00;98824.06;15315318;19;20288;-83
2022/08/31 03:47:49;;;;;;;3.28;2.03;;;;;;;14.00;100.00;98839.66;15294568;19;20086;-81
2022/08/31 03:52:54;;;;;;;2.75;2.15;;;;;;;13.98;100.00;98856.09;15297872;19;20003;-83
2022/08/31 03:58:03;;;;;;;3.20;1.90;;;;;;;14.01;100.00;98855.72;15301868;19;20026;-82
2022/08/31 04:03:12;;;;;;;2.30;1.73;;;;;;;13.97;100.00;98848.97;15308865;19;20022;-85
2022/08/31 04:08:36;;;;;;;3.08;2.00;;;;;;;13.96;100.00;98858.09;15309647;19;20010;-83
2022/08/31 04:14:10;;;;;;;2.88;1.80;;;;;;;13.96;100.00;98852.69;15305659;19;20491;-83
2022/08/31 04:19:40;;;;;;;2.38;1.90;;;;;;;13.93;100.00;98846.78;15316265;19;20429;-84
2022/08/31 04:25:09;;;;;;;4.25;1.98;;;;;;;13.92;100.00;98859.47;15312363;19;20007;-84
2022/08/31 04:30:37;;;;;;;2.15;1.80;;;;;;;13.91;100.00;98865.06;15310947;19;20011;-85
2022/08/31 04:35:54;;;;;;;3.35;2.03;;;;;;;13.84;100.00;98860.31;15303534;19;20017;-83
2022/08/31 04:40:59;;;;;;;3.53;2.40;;;;;;;13.82;100.00;98862.34;15300592;19;20015;-82
2022/08/31 04:46:09;;;;;;;3.33;2.50;;;;;;;13.76;100.00;98863.03;15302391;19;21838;-84
2022/08/31 04:51:17;;;;;;;3.22;2.50;;;;;;;13.74;100.00;98867.78;15306456;19;20021;-82
2022/08/31 04:56:25;;;;;;;3.38;2.20;;;;;;;13.76;100.00;98867.63;15308578;19;20033;-80
2022/08/31 05:01:35;;;;;;;4.72;1.80;;;;;;;13.81;100.00;98868.81;15303263;19;20745;-80
2022/08/31 05:06:53;;;;;;;3.42;2.00;;;;;;;13.83;100.00;98880.28;15302577;19;20021;-83
2022/08/31 05:11:58;;;;;;;4.28;1.90;;;;;;;13.85;100.00;98889.09;15302062;19;20022;-80
2022/08/31 05:17:08;;;;;;;2.65;2.15;;;;;;;13.87;100.00;98878.94;15309570;19;20011;-82
2022/08/31 05:22:19;;;;;;;3.38;2.00;;;;;;;13.85;100.00;98899.09;15305084;19;20010;-80
2022/08/31 05:27:25;;;;;;;4.90;2.20;;;;;;;13.85;100.00;98889.09;15316229;19;20021;-81
2022/08/31 05:32:32;;;;;;;3.28;2.22;;;;;;;13.86;100.00;98903.50;15369286;19;20042;-79
2022/08/31 05:37:41;;;;;;;3.50;2.03;;;;;;;13.86;100.00;98900.78;15338460;19;20349;-82
2022/08/31 05:42:46;;;;;;;4.35;2.40;;;;;;;13.85;100.00;98901.81;15323465;19;20015;-81
2022/08/31 05:47:54;;;;;;;2.63;2.40;;;;;;;13.82;100.00;98913.81;15332289;19;20018;-81
2022/08/31 05:52:59;;;;;;;4.25;2.53;;;;;;;13.79;100.00;98913.31;15304869;19;20459;-80
2022/08/31 05:58:04;;;;;;;2.53;2.30;;;;;;;13.85;100.00;98935.13;15302906;19;20034;-80
2022/08/31 06:03:11;;;;;;;2.88;2.40;;;;;;;13.93;100.00;98928.03;15298586;19;20015;-79
2022/08/31 06:14:08;;;;;;;3.35;2.42;;;;;;;14.03;100.00;98934.97;15312217;19;20023;-80
2022/08/31 06:19:16;;;;;;;4.35;2.30;;;;;;;14.10;100.00;98937.81;15309760;19;20014;-82
2022/08/31 06:24:24;;;;;;;3.88;2.20;;;;;;;14.17;100.00;98944.25;15310788;19;20037;-82
2022/08/31 06:29:31;;;;;;;3.53;2.25;;;;;;;14.25;100.00;98942.56;15319816;19;20014;-82
2022/08/31 06:34:41;;;;;;;2.25;1.98;;;;;;;14.31;100.00;98945.44;15315280;19;20015;-81
2022/08/31 06:40:05;;;;;;;4.05;1.70;;;;;;;14.41;100.00;98941.66;15315701;19;20014;-82
2022/08/31 06:45:29;;;;;;;6.03;1.67;;;;;;;14.51;100.00;98944.19;15307188;19;20010;-80
2022/08/31 06:51:00;;;;;;;4.13;1.52;;;;;;;14.65;100.00;98943.44;15306182;19;20022;-81
2022/08/31 06:56:06;;;;;;;3.35;1.70;;;;;;;14.70;100.00;98943.81;15313629;19;20015;-81
2022/08/31 07:01:47;;;;;;;3.55;1.63;;;;;;;14.75;100.00;98949.56;15316678;19;20031;-81
2022/08/31 07:07:11;;;;;;;2.15;1.60;;;;;;;14.94;100.00;98955.59;15305390;19;20011;-81
2022/08/31 07:12:17;;;;;;;2.35;1.80;;;;;;;15.07;100.00;98953.16;15308146;19;20010;-78
2022/08/31 07:17:25;;;;;;;2.33;1.70;;;;;;;15.19;100.00;98955.47;15303553;19;20014;-83
2022/08/31 07:22:33;;;;;;;2.78;1.60;;;;;;;15.36;100.00;98943.47;15322280;19;20030;-82
2022/08/31 07:27:58;;;;;;;2.10;1.70;;;;;;;15.58;100.00;98954.56;15305271;19;20378;-80
2022/08/31 07:33:05;;;;;;;3.15;1.80;;;;;;;15.77;100.00;98953.19;15288729;19;20764;-81
2022/08/31 07:43:34;;;;;;;3.22;1.30;;;;;;;16.23;100.00;98957.78;15285929;19;20082;-80
2022/08/31 07:48:40;;;;;;;2.40;1.30;;;;;;;16.40;100.00;98946.75;15287655;19;20034;-79
2022/08/31 07:54:07;;;;;;;2.40;1.25;;;;;;;16.58;100.00;98939.03;15282182;19;20026;-80
2022/08/31 07:59:41;;;;;;;2.00;1.13;;;;;;;16.69;100.00;98940.47;15288399;19;20459;-80
2022/08/31 08:04:52;;;;;;;3.00;1.15;;;;;;;16.84;100.00;98951.34;15292010;19;20014;-82
2022/08/31 08:10:36;;;;;;;1.98;1.20;;;;;;;16.79;100.00;98946.47;15293789;19;20018;-80
2022/08/31 08:16:01;;;;;;;3.58;0.90;;;;;;;16.94;100.00;98951.91;15315221;19;20014;-80
2022/08/31 08:21:28;;;;;;;3.05;1.10;;;;;;;17.08;100.00;98949.38;15318368;19;20015;-81
2022/08/31 08:26:35;;;;;;;1.77;1.08;;;;;;;17.27;100.00;98953.38;15310878;19;20236;-81
2022/08/31 08:31:41;;;;;;;1.88;1.00;;;;;;;17.40;100.00;98952.66;15313382;19;20019;-82
2022/08/31 08:36:46;;;;;;;1.33;1.00;;;;;;;17.52;100.00;98951.13;15298669;19;20014;-81
2022/08/31 08:41:57;;;;;;;1.92;1.10;;;;;;;17.67;100.00;98956.50;15303180;19;20011;-81
2022/08/31 08:47:04;;;;;;;;;;;;;;;17.79;100.00;98943.22;15316727;19;20014;-81
2022/08/31 08:52:26;;;;;;;2.22;1.10;;;;;;;17.98;100.00;98949.91;15334134;19;19922;-82
2022/08/31 08:57:37;;;;;;;1.58;0.90;;;;;;;18.17;100.00;98956.56;15328811;19;20022;-81
2022/08/31 09:02:56;;;;;;;3.72;1.00;;;;;;;18.27;100.00;98960.84;15331177;19;20010;-81
2022/08/31 09:08:41;;;;;;;1.80;0.90;;;;;;;18.44;100.00;98964.94;15326642;19;20018;-82
2022/08/31 09:14:05;;;;;;;2.70;0.80;;;;;;;18.56;100.00;98950.75;15357596;19;20013;-83
2022/08/31 09:19:15;;;;;;;2.33;0.98;;;;;;;18.67;100.00;98958.38;15328038;19;20023;-81
2022/08/31 09:24:25;;;;;;;2.30;1.00;;;;;;;18.76;100.00;98957.16;15291702;19;20022;-79
2022/08/31 09:30:00;;;;;;;1.67;0.80;;;;;;;19.08;100.00;98954.00;15287461;19;20003;-80
2022/08/31 09:35:08;;;;;;;3.85;1.05;;;;;;;19.21;100.00;98945.03;15288111;19;20011;-78
2022/08/31 09:40:19;;;;;;;2.88;0.80;;;;;;;19.26;100.00;98934.31;15295380;19;20018;-80
2022/08/31 09:45:34;;;;;;;5.03;0.90;;;;;;;19.35;100.00;98933.06;15297408;19;20024;-78
2022/08/31 09:50:47;;;;;;;2.38;0.85;;;;;;;19.47;100.00;98937.94;15301318;19;20182;-79
2022/08/31 09:56:12;;;;;;;3.72;1.02;;;;;;;19.64;100.00;98936.50;15305262;19;20011;-79
2022/08/31 10:01:26;;;;;;;1.80;0.80;;;;;;;19.59;100.00;98930.81;15313887;19;20415;-81
2022/08/31 10:06:45;;;;;;;2.13;0.70;;;;;;;19.56;100.00;98929.34;15314132;19;20471;-80
2022/08/31 10:11:56;;;;;;;3.65;0.82;;;;;;;19.63;100.00;98931.25;15310128;19;20031;-79
2022/08/31 10:17:11;;;;;;;2.33;0.90;;;;;;;19.42;100.00;98924.88;15315777;19;20461;-79
2022/08/31 10:22:26;;;;;;;1.25;0.70;;;;;;;19.43;100.00;98925.75;15313474;19;20514;-79
2022/08/31 10:27:39;;;;;;;1.20;0.60;;;;;;;19.58;100.00;98925.56;15308703;19;20022;-79
2022/08/31 10:32:54;;;;;;;1.60;0.50;;;;;;;19.69;100.00;98928.53;15311802;19;20046;-79
2022/08/31 10:38:08;;;;;;;2.05;0.57;;;;;;;19.84;100.00;98930.22;15303008;19;20041;-79
2022/08/31 10:43:17;;;;;;;2.55;0.65;;;;;;;19.83;100.00;98928.53;15284991;19;20455;-79
2022/08/31 10:48:27;;;;;;;1.17;0.60;;;;;;;19.92;100.00;98919.13;15291086;19;20039;-77
2022/08/31 10:53:49;;;;;;;1.55;0.50;;;;;;;20.11;100.00;98920.13;15288042;19;20275;-75
2022/08/31 10:59:09;;;;;;;1.00;0.60;;;;;;;20.23;100.00;98914.88;15342655;19;20022;-75
2022/08/31 11:04:36;;;;;;;3.97;0.80;;;;;;;20.32;100.00;98910.88;15307382;19;20525;-79
2022/08/31 11:09:49;;;;;;;2.72;0.60;;;;;;;20.53;100.00;98916.31;15302733;19;20015;-81
2022/08/31 11:15:21;;;;;;;3.65;0.68;;;;;;;20.68;100.00;98914.16;15358002;19;20010;-81
2022/08/31 11:20:46;;;;;;;1.08;0.50;;;;;;;20.72;100.00;98911.84;15331598;19;20011;-84
2022/08/31 11:26:19;;;;;;;1.15;0.50;;;;;;;20.72;100.00;98911.84;15308944;19;20038;-84
2022/08/31 11:31:30;;;;;;;0.75;0.40;;;;;;;20.89;100.00;98914.97;15297445;19;20018;-88
2022/08/31 11:36:53;;;;;;;0.90;0.40;;;;;;;20.83;100.00;98905.72;15286558;19;20006;-81
2022/08/31 11:41:59;;;;;;;0.98;0.50;;;;;;;21.01;100.00;98913.25;15290107;19;20015;-83
2022/08/31 11:47:06;;;;;;;1.40;0.55;;;;;;;20.98;100.00;98901.88;15292173;19;20377;-84
2022/08/31 11:52:33;;;;;;;2.13;0.52;;;;;;;20.97;100.00;98897.47;15295793;19;20476;-82
2022/08/31 11:58:14;;;;;;;0.77;0.40;;;;;;;21.10;100.00;98894.66;15295205;19;20377;-83
2022/08/31 12:03:44;;;;;;;1.20;0.50;;;;;;;21.33;100.00;98898.75;15290751;19;20018;-86
2022/08/31 12:08:54;;;;;;;1.95;0.50;;;;;;;21.43;100.00;98899.09;15288503;19;20154;-85
2022/08/31 12:14:04;;;;;;;1.15;0.43;;;;;;;21.38;100.00;98899.78;15287094;19;20014;-83
2022/08/31 12:25:10;;;;;;;2.08;0.47;;;;;;;21.69;100.00;98889.06;15301978;19;20014;-85
2022/08/31 12:30:20;;;;;;;1.60;0.40;;;;;;;21.72;100.00;98887.75;15314132;19;20010;-87
2022/08/31 12:35:27;;;;;;;0.73;0.45;;;;;;;21.83;100.00;98896.09;15313041;19;20007;-87
2022/08/31 12:40:37;;;;;;;1.95;0.40;;;;;;;21.75;100.00;98884.59;15314533;19;20016;-85
2022/08/31 12:46:15;;;;;;;0.85;0.60;;;;;;;21.66;100.00;98881.28;15306661;19;20025;-87
2022/08/31 12:51:37;;;;;;;3.83;0.60;;;;;;;21.72;100.00;98885.03;15317369;19;20014;-88
2022/08/31 12:56:55;;;;;;;5.45;0.50;;;;;;;21.73;100.00;98890.28;15308329;19;20037;-86
2022/08/31 13:02:04;;;;;;;4.72;0.60;;;;;;;21.70;100.00;98882.47;15332733;19;20077;-85
2022/08/31 13:07:35;;;;;;;5.25;0.52;;;;;;;21.72;100.00;98888.59;15356559;19;20011;-87
2022/08/31 13:12:51;;;;;;;2.05;0.57;;;;;;;21.81;100.00;98883.69;15315247;19;20014;-87
2022/08/31 13:18:03;;;;;;;1.73;0.50;;;;;;;21.76;100.00;98878.88;15304993;19;20085;-85
2022/08/31 13:23:10;;;;;;;0.88;0.43;;;;;;;21.69;100.00;98870.69;15328413;19;20483;-83
2022/08/31 13:28:29;;;;;;;2.65;0.40;;;;;;;21.87;100.00;98866.34;15305751;19;20696;-86
2022/08/31 13:33:38;;;;;;;5.82;0.57;;;;;;;22.10;100.00;98871.19;15311374;19;20046;-84
2022/08/31 13:38:50;;;;;;;2.08;0.45;;;;;;;22.14;100.00;98866.94;15310725;19;20011;-85
2022/08/31 13:44:01;;;;;;;1.40;0.50;;;;;;;22.26;100.00;98863.44;15318263;19;20039;-86
2022/08/31 13:49:10;;;;;;;0.95;0.38;;;;;;;22.38;100.00;98858.88;15306097;19;20383;-84
2022/08/31 13:54:29;;;;;;;1.50;0.50;;;;;;;22.56;97.34;98862.72;15308269;19;20026;-87
2022/08/31 13:59:39;;;;;;;0.88;0.50;;;;;;;22.75;94.50;98853.41;15309113;19;20073;-85
2022/08/31 14:04:59;;;;;;;2.50;0.50;;;;;;;22.94;100.00;98843.22;15299144;19;20025;-84
2022/08/31 14:10:08;;;;;;;1.05;0.40;;;;;;;23.12;100.00;98846.16;15296612;19;20010;-84
2022/08/31 14:15:35;;;;;;;0.93;0.50;;;;;;;23.09;84.25;98847.47;15300309;19;20043;-84
2022/08/31 14:20:43;;;;;;;1.73;0.30;;;;;;;22.89;85.72;98840.34;15314448;19;20009;-85
2022/08/31 14:26:14;;;;;;;1.50;0.50;;;;;;;22.82;82.87;98845.06;15306647;19;20018;-85
2022/08/31 14:31:27;;;;;;;2.15;0.43;;;;;;;22.65;85.37;98838.53;15301333;19;20598;-85
2022/08/31 14:36:49;;;;;;;1.20;0.50;;;;;;;22.71;94.54;98832.97;15329218;19;20043;-88
2022/08/31 14:41:56;;;;;;;1.40;0.50;;;;;;;22.73;99.24;98832.72;15347284;19;20679;-87
2022/08/31 14:47:05;;;;;;;1.13;0.47;;;;;;;22.70;94.10;98825.78;15320977;19;20441;-88
2022/08/31 14:52:11;;;;;;;2.58;0.50;;;;;;;22.35;88.62;98815.41;15300657;19;20531;-84
2022/08/31 14:57:23;;;;;;;0.85;0.50;;;;;;;22.13;93.84;98815.84;15283198;19;20090;-85
2022/08/31 15:02:34;;;;;;;1.05;0.40;;;;;;;22.08;95.86;98812.94;15283846;19;20024;-84
2022/08/31 15:07:43;;;;;;;0.77;0.40;;;;;;;22.04;100.00;98811.75;15280890;19;20014;-86
2022/08/31 15:12:49;;;;;;;1.02;0.50;;;;;;;21.88;94.49;98817.78;15277672;19;20011;-85
2022/08/31 15:17:56;;;;;;;1.65;0.43;;;;;;;21.57;100.00;98827.75;15281738;19;20014;-84
2022/08/31 15:23:02;;;;;;;1.23;0.50;;;;;;;21.35;100.00;98833.56;15285203;19;20054;-82
2022/08/31 15:28:07;;;;;;;2.35;0.60;;;;;;;21.18;100.00;98836.84;15268666;19;20019;-84
2022/08/31 15:33:14;;;;;;;2.67;0.38;;;;;;;21.04;100.00;98827.03;15281122;19;20021;-85
2022/08/31 15:38:19;;;;;;;2.92;0.50;;;;;;;20.95;100.00;98823.69;15280592;19;20752;-86
2022/08/31 15:43:24;;;;;;;2.42;0.60;;;;;;;20.88;100.00;98826.47;15287518;19;20007;-87
2022/08/31 15:48:44;;;;;;;1.85;0.50;;;;;;;20.82;100.00;98823.75;15279833;19;20018;-84
2022/08/31 15:53:50;;;;;;;1.75;0.50;;;;;;;20.82;100.00;98821.88;15285612;19;20022;-85
2022/08/31 15:59:15;;;;;;;3.13;0.52;;;;;;;20.71;100.00;98811.59;15283654;19;20043;-84
2022/08/31 16:04:24;;;;;;;2.13;0.50;;;;;;;20.67;100.00;98813.94;15288340;19;20011;-84
2022/08/31 16:09:29;;;;;;;0.98;0.43;;;;;;;20.55;100.00;98813.75;15297259;19;20084;-81
2022/08/31 16:14:37;;;;;;;1.55;0.68;;;;;;;20.53;100.00;98806.81;15314851;19;20090;-84
2022/08/31 16:19:44;;;;;;;3.33;0.60;;;;;;;20.47;100.00;98809.34;15318062;19;20007;-81
2022/08/31 16:24:50;;;;;;;1.65;0.60;;;;;;;20.39;100.00;98803.31;15346212;19;20033;-84
2022/08/31 16:29:57;;;;;;;1.10;0.50;;;;;;;20.25;100.00;98805.22;15289207;19;20021;-82
2022/08/31 16:35:05;;;;;;;2.17;0.68;;;;;;;20.20;100.00;98805.03;15300750;19;20022;-81
2022/08/31 16:40:12;;;;;;;1.35;0.60;;;;;;;20.09;100.00;98798.31;15296026;19;20021;-79
2022/08/31 16:45:19;;;;;;;2.72;0.50;;;;;;;20.04;100.00;98800.88;15287695;19;20026;-78
2022/08/31 16:50:26;;;;;;;3.05;0.60;;;;;;;20.01;100.00;98802.97;15294656;19;20019;-78
2022/08/31 16:55:33;;;;;;;2.00;0.50;;;;;;;19.95;100.00;98812.03;15287591;19;20479;-80
2022/08/31 17:00:38;;;;;;;1.13;0.50;;;;;;;19.90;100.00;98811.84;15282476;19;20806;-83
2022/08/31 17:05:48;;;;;;;3.28;0.50;;;;;;;19.84;100.00;98818.09;15294974;19;20025;-79
2022/08/31 17:10:53;;;;;;;2.50;0.50;;;;;;;19.75;100.00;98822.13;15285313;19;20035;-81
2022/08/31 17:15:57;;;;;;;1.73;0.52;;;;;;;19.69;100.00;98824.66;15286015;19;20018;-79
2022/08/31 17:21:05;;;;;;;1.70;0.60;;;;;;;19.64;100.00;98818.97;15290241;19;20019;-81
2022/08/31 17:26:11;;;;;;;2.20;0.70;;;;;;;19.59;100.00;98826.13;15295317;19;20007;-79
2022/08/31 17:31:15;;;;;;;1.20;0.60;;;;;;;19.61;100.00;98818.56;15300236;19;20017;-80
2022/08/31 17:36:24;;;;;;;2.20;0.70;;;;;;;19.63;100.00;98822.75;15293185;19;20054;-79
2022/08/31 17:41:29;;;;;;;1.20;0.50;;;;;;;19.64;100.00;98826.34;15293464;19;20031;-80
2022/08/31 17:46:34;;;;;;;2.83;0.50;;;;;;;19.55;100.00;98817.50;15289537;19;20435;-78
2022/08/31 17:51:42;;;;;;;2.40;0.50;;;;;;;19.46;100.00;98830.53;15283248;19;21009;-79
2022/08/31 17:56:52;;;;;;;1.52;0.60;;;;;;;19.33;100.00;98825.91;15293329;19;20050;-78
2022/08/31 18:01:59;;;;;;;3.47;0.50;;;;;;;19.20;100.00;98829.44;15288309;19;20019;-81
2022/08/31 18:07:08;;;;;;;2.90;0.60;;;;;;;19.08;100.00;98831.94;15277776;19;20021;-80
2022/08/31 18:12:13;;;;;;;3.13;0.57;;;;;;;18.99;100.00;98840.53;15289680;19;20015;-80
2022/08/31 18:17:20;;;;;;;1.88;0.55;;;;;;;18.87;100.00;98840.28;15281751;19;20007;-80
2022/08/31 18:22:27;;;;;;;1.23;0.60;;;;;;;18.74;100.00;98850.09;15290262;19;20017;-81
2022/08/31 18:27:32;;;;;;;0.68;0.35;;;;;;;18.59;100.00;98860.31;15285516;19;20023;-81
2022/08/31 18:32:37;;;;;;;1.23;0.47;;;;;;;18.48;100.00;98867.16;15293689;19;20020;-80
2022/08/31 18:37:53;;;;;;;6.22;0.70;;;;;;;18.39;100.00;98869.25;15279064;19;20015;-81
2022/08/31 18:48:16;;;;;;;1.85;0.60;;;;;;;18.17;100.00;98861.09;15281680;19;20017;-81
2022/08/31 18:53:36;;;;;;;2.35;0.68;;;;;;;18.13;100.00;98865.28;15290520;19;20014;-81
2022/08/31 18:58:42;;;;;;;1.60;0.65;;;;;;;18.03;100.00;98864.81;15288706;19;20475;-84
2022/08/31 19:03:47;;;;;;;0.90;0.70;;;;;;;17.95;100.00;98873.09;15288233;19;20078;-82
2022/08/31 19:08:54;;;;;;;2.22;0.73;;;;;;;17.85;100.00;98877.00;15285320;19;20751;-80
2022/08/31 19:14:01;;;;;;;3.20;0.52;;;;;;;17.74;100.00;98880.25;15288150;19;20018;-82
2022/08/31 19:19:06;;;;;;;2.22;0.70;;;;;;;17.70;100.00;98877.09;15282865;19;20006;-78
2022/08/31 19:24:17;;;;;;;2.05;0.60;;;;;;;17.66;100.00;98875.78;15289590;19;20041;-79
2022/08/31 19:29:25;;;;;;;1.15;0.50;;;;;;;17.63;100.00;98880.78;15259861;19;20082;-79
2022/08/31 19:34:32;;;;;;;1.38;0.50;;;;;;;17.59;100.00;98879.50;15284177;19;20011;-79
2022/08/31 19:39:43;;;;;;;1.65;0.70;;;;;;;17.53;100.00;98876.53;15285322;19;20006;-79
2022/08/31 19:44:51;;;;;;;2.00;0.70;;;;;;;17.51;100.00;98878.59;15281779;19;20538;-75
2022/08/31 19:50:16;;;;;;;2.53;0.65;;;;;;;17.49;100.00;98879.84;15276013;19;20724;-78
2022/08/31 19:55:24;;;;;;;3.28;0.60;;;;;;;17.48;100.00;98872.69;15281447;19;20123;-77
2022/08/31 20:00:28;;;;;;;2.85;0.60;;;;;;;17.45;100.00;98878.53;15284752;19;20009;-78
2022/08/31 20:05:34;;;;;;;2.80;0.50;;;;;;;17.36;100.00;98875.94;15280843;19;20015;-78
2022/08/31 20:10:47;;;;;;;0.80;0.50;;;;;;;17.32;100.00;98881.97;15282960;19;20474;-78
2022/08/31 20:15:53;;;;;;;3.58;0.60;;;;;;;17.29;100.00;98874.19;15272185;19;20011;-77
2022/08/31 20:20:59;;;;;;;2.75;0.50;;;;;;;17.24;100.00;98886.50;15276103;19;20011;-77
2022/08/31 20:26:10;;;;;;;2.10;0.60;;;;;;;17.19;100.00;98880.81;15274604;19;20022;-77
2022/08/31 20:31:15;;;;;;;0.80;0.55;;;;;;;17.12;100.00;98876.31;15277072;19;20089;-78
2022/08/31 20:36:25;;;;;;;1.88;0.45;;;;;;;17.10;100.00;98876.53;15274856;19;20064;-75
2022/08/31 20:41:33;;;;;;;2.10;0.40;;;;;;;17.08;100.00;98881.31;15277890;19;20018;-78
2022/08/31 20:52:01;;;;;;;4.05;0.50;;;;;;;17.05;100.00;98881.69;15292041;19;20014;-78
2022/08/31 20:57:10;;;;;;;2.05;0.50;;;;;;;17.07;100.00;98883.16;15287406;19;20026;-78
2022/08/31 21:02:16;;;;;;;0.60;0.45;;;;;;;17.08;100.00;98878.59;15293389;19;20003;-78
2022/08/31 21:07:21;;;;;;;0.75;0.47;;;;;;;17.05;100.00;98889.84;15287411;19;20007;-77
2022/08/31 21:12:29;;;;;;;0.93;0.50;;;;;;;17.05;100.00;98892.56;15290792;19;20027;-77
2022/08/31 21:17:34;;;;;;;0.95;0.75;;;;;;;17.06;100.00;98883.38;15289254;19;20053;-77
2022/08/31 21:22:39;;;;;;;0.52;0.40;;;;;;;17.05;100.00;98878.97;14779675;19;10000445;-78
2022/08/31 21:27:46;;;;;;;0.50;0.47;;;;;;;17.03;100.00;98875.59;15289364;19;20011;-79
2022/08/31 21:32:52;;;;;;;0.50;0.50;;;;;;;17.02;100.00;98884.78;15292119;19;20011;-76
2022/08/31 21:37:57;;;;;;;0.60;0.43;;;;;;;16.99;100.00;98890.63;15292307;19;20007;-79
2022/08/31 21:43:05;;;;;;;0.55;0.30;;;;;;;16.97;100.00;98895.41;15333785;19;20582;-77
2022/08/31 21:48:10;;;;;;;4.50;0.60;;;;;;;16.91;100.00;98895.09;15322714;19;20347;-78
2022/08/31 21:53:15;;;;;;;1.40;0.60;;;;;;;16.90;100.00;98892.59;15279411;19;20029;-77
2022/08/31 21:58:22;;;;;;;0.70;0.40;;;;;;;16.86;100.00;98886.69;15279862;19;20053;-76
2022/08/31 22:03:35;;;;;;;2.35;0.60;;;;;;;16.83;100.00;98895.22;15284454;19;20034;-78
2022/08/31 22:08:41;;;;;;;1.63;0.50;;;;;;;16.77;100.00;98891.38;15283681;19;20031;-78
2022/08/31 22:13:50;;;;;;;1.55;0.52;;;;;;;16.75;100.00;98887.19;15283949;19;20035;-78
2022/08/31 22:18:57;;;;;;;0.80;0.60;;;;;;;16.75;100.00;98889.91;15286049;19;20747;-79
2022/08/31 22:24:09;;;;;;;0.88;0.50;;;;;;;16.72;100.00;98888.38;15286765;19;20043;-79
2022/08/31 22:29:22;;;;;;;2.13;0.60;;;;;;;16.71;100.00;98885.84;15315501;19;20026;-76
2022/08/31 22:34:28;;;;;;;0.70;0.45;;;;;;;16.69;100.00;98880.63;15334227;19;20030;-78
2022/08/31 22:39:33;;;;;;;1.13;0.43;;;;;;;16.67;100.00;98876.38;15285960;19;20424;-79
2022/08/31 22:44:42;;;;;;;1.35;0.50;;;;;;;16.62;100.00;98869.66;15286949;19;20018;-79
2022/08/31 22:49:47;;;;;;;4.18;0.40;;;;;;;16.58;100.00;98876.50;15287790;19;20007;-79
2022/08/31 22:54:52;;;;;;;0.68;0.50;;;;;;;16.57;100.00;98874.78;15279211;19;20007;-79
2022/08/31 22:59:59;;;;;;;3.15;0.70;;;;;;;16.55;100.00;98881.47;15316090;19;20039;-79
2022/08/31 23:05:04;;;;;;;1.52;0.68;;;;;;;16.53;100.00;98878.91;15283811;19;20031;-79
2022/08/31 23:10:12;;;;;;;2.50;0.60;;;;;;;16.53;100.00;98875.38;15290507;19;20353;-78
2022/08/31 23:15:21;;;;;;;1.73;0.50;;;;;;;16.50;100.00;98873.88;15292493;19;20035;-80
2022/08/31 23:20:26;;;;;;;0.85;0.60;;;;;;;16.43;100.00;98859.31;15297918;19;20023;-77
2022/08/31 23:25:31;;;;;;;1.92;0.55;;;;;;;16.39;100.00;98858.03;15291178;19;20014;-78
2022/08/31 23:30:42;;;;;;;0.75;0.50;;;;;;;16.31;100.00;98861.69;15289320;19;20035;-77
2022/08/31 23:35:48;;;;;;;0.98;0.68;;;;;;;16.28;100.00;98848.47;15292050;19;20038;-78
2022/08/31 23:40:55;;;;;;;0.95;0.43;;;;;;;16.23;100.00;98853.63;15294345;19;20014;-78
2022/08/31 23:46:03;;;;;;;1.48;0.50;;;;;;;16.17;100.00;98844.31;15293286;19;20014;-78
2022/08/31 23:51:10;;;;;;;1.35;0.60;;;;;;;16.08;100.00;98846.31;15295723;19;20340;-78
2022/08/31 23:56:16;;;;;;;1.10;0.47;;;;;;;15.99;100.00;98845.56;15295596;19;20018;-79
